Time;durP1;ratioP1;P1;durP2;ratioP2;P2;SDS_P1;SDS_P2;PMS_P1;PMS_P2;Temp;Humidity;BMP_temperature;BMP_pressure;BME280_temperature;BME280_humidity;BME280_pressure;Samples;Min_cycle;Max_cycle;Signal;HPM_P1;HPM_P2
2022/02/17 00:01:36;;;;;;;;;;;13.10;1.00;;;;;;5133095;27;19911;-83
2022/02/17 00:04:01;;;;;;;;;;;12.90;1.00;;;;;;5127972;28;19919;-81
2022/02/17 00:06:27;;;;;;;;;;;13.00;1.00;;;;;;5126986;27;19957;-84
2022/02/17 00:08:52;;;;;;;;;;;12.90;1.00;;;;;;5128947;28;20001;-83
2022/02/17 00:11:18;;;;;;;;;;;13.00;1.00;;;;;;5127746;28;19927;-83
2022/02/17 00:13:43;;;;;;;;;;;13.00;1.00;;;;;;5131734;27;20011;-83
2022/02/17 00:16:08;;;;;;;;;;;12.90;1.00;;;;;;5130644;27;19918;-83
2022/02/17 00:18:34;;;;;;;;;;;12.90;1.00;;;;;;5123867;27;19926;-83
2022/02/17 00:21:00;;;;;;;;;;;13.00;1.00;;;;;;5139204;27;19949;-83
2022/02/17 00:23:26;;;;;;;;;;;13.00;1.00;;;;;;5131466;27;20049;-82
2022/02/17 00:25:53;;;;;;;;;;;13.00;1.00;;;;;;5127812;28;19930;-83
2022/02/17 00:28:18;;;;;;;;;;;13.00;1.00;;;;;;5125948;28;20069;-83
2022/02/17 00:30:44;;;;;;;;;;;13.00;1.00;;;;;;5133926;27;19911;-83
2022/02/17 00:33:09;;;;;;;;;;;13.00;1.00;;;;;;5127732;27;19923;-83
2022/02/17 00:35:35;;;;;;;;;;;13.00;1.00;;;;;;5126942;27;19965;-83
2022/02/17 00:38:00;;;;;;;;;;;13.00;1.00;;;;;;5125328;28;20262;-83
2022/02/17 00:40:26;;;;;;;;;;;13.00;1.00;;;;;;5138519;27;19923;-83
2022/02/17 00:42:52;;;;;;;;;;;13.00;1.00;;;;;;5125018;28;19922;-82
2022/02/17 00:45:17;;;;;;;;;;;13.10;99.90;;;;;;5127822;28;19915;-83
2022/02/17 00:47:43;;;;;;;;;;;13.10;99.90;;;;;;5130623;27;19912;-83
2022/02/17 00:50:08;;;;;;;;;;;13.20;99.90;;;;;;5129868;27;19922;-82
2022/02/17 00:52:34;;;;;;;;;;;13.20;1.00;;;;;;5125887;27;19928;-83
2022/02/17 00:54:59;;;;;;;;;;;13.20;1.00;;;;;;5136118;27;19918;-83
2022/02/17 00:57:25;;;;;;;;;;;13.20;99.90;;;;;;5128430;27;19916;-82
2022/02/17 00:59:51;;;;;;;;;;;13.20;1.00;;;;;;5122905;28;20021;-83
2022/02/17 01:02:16;;;;;;;;;;;13.30;9.60;;;;;;5117687;28;19968;-83
2022/02/17 01:04:42;;;;;;;;;;;13.30;99.90;;;;;;5126331;27;20865;-83
2022/02/17 01:07:07;;;;;;;;;;;13.20;1.00;;;;;;5129378;27;19912;-83
2022/02/17 01:09:33;;;;;;;;;;;13.20;1.00;;;;;;5129890;27;19912;-83
2022/02/17 01:11:59;;;;;;;;;;;12.90;99.90;;;;;;5130152;27;19916;-83
2022/02/17 01:14:25;;;;;;;;;;;13.00;99.90;;;;;;5128616;27;19934;-83
2022/02/17 01:16:50;;;;;;;;;;;12.90;99.90;;;;;;5124412;28;19912;-83
2022/02/17 01:19:16;;;;;;;;;;;12.90;1.00;;;;;;5124110;28;19942;-83
2022/02/17 01:21:41;;;;;;;;;;;12.90;99.90;;;;;;5118271;28;19933;-83
2022/02/17 01:24:07;;;;;;;;;;;12.80;1.00;;;;;;5124632;27;20383;-83
2022/02/17 01:26:32;;;;;;;;;;;12.80;1.00;;;;;;5124958;28;19919;-83
2022/02/17 01:28:58;;;;;;;;;;;12.90;2.60;;;;;;5124533;28;19973;-83
2022/02/17 01:31:23;;;;;;;;;;;12.90;1.00;;;;;;5126275;27;19922;-83
2022/02/17 01:33:49;;;;;;;;;;;12.80;99.90;;;;;;5124258;28;19958;-83
2022/02/17 01:36:14;;;;;;;;;;;12.90;1.00;;;;;;5123833;28;19916;-83
2022/02/17 01:38:41;;;;;;;;;;;12.90;13.30;;;;;;5123957;28;19912;-83
2022/02/17 01:41:07;;;;;;;;;;;12.90;99.90;;;;;;5128642;27;19920;-82
2022/02/17 01:43:33;;;;;;;;;;;12.80;99.90;;;;;;5121463;28;19919;-83
2022/02/17 01:45:59;;;;;;;;;;;12.80;1.00;;;;;;5123617;28;20008;-83
2022/02/17 01:48:25;;;;;;;;;;;12.90;99.90;;;;;;5126529;27;20291;-83
2022/02/17 01:50:50;;;;;;;;;;;12.80;99.90;;;;;;5122522;28;19983;-83
2022/02/17 01:53:16;;;;;;;;;;;12.80;12.50;;;;;;5119037;28;19916;-83
2022/02/17 01:55:44;;;;;;;;;;;12.80;1.00;;;;;;5121694;27;19912;-83
2022/02/17 01:58:09;;;;;;;;;;;12.80;1.00;;;;;;5122849;27;19911;-82
2022/02/17 02:00:35;;;;;;;;;;;12.80;1.00;;;;;;5121340;28;19934;-83
2022/02/17 02:03:00;;;;;;;;;;;12.80;99.90;;;;;;5124072;27;19931;-83
2022/02/17 02:05:26;;;;;;;;;;;12.70;99.90;;;;;;5118665;28;19920;-83
2022/02/17 02:07:52;;;;;;;;;;;12.80;99.90;;;;;;5121607;28;19908;-84
2022/02/17 02:10:17;;;;;;;;;;;12.70;99.90;;;;;;5120073;28;19927;-82
2022/02/17 02:12:43;;;;;;;;;;;12.70;99.90;;;;;;5121598;28;19915;-83
2022/02/17 02:15:09;;;;;;;;;;;12.70;99.90;;;;;;5122192;28;19911;-83
2022/02/17 02:17:35;;;;;;;;;;;12.70;99.90;;;;;;5120397;27;19916;-84
2022/02/17 02:20:06;;;;;;;;;;;12.60;96.10;;;;;;5123713;27;19908;-83
2022/02/17 02:22:32;;;;;;;;;;;12.60;53.70;;;;;;5121404;28;19926;-83
2022/02/17 02:24:59;;;;;;;;;;;12.60;36.80;;;;;;5122633;28;19908;-83
2022/02/17 02:27:25;;;;;;;;;;;12.40;18.10;;;;;;5122868;28;20375;-83
2022/02/17 02:29:50;;;;;;;;;;;12.40;1.00;;;;;;5121897;28;19938;-83
2022/02/17 02:32:16;;;;;;;;;;;12.40;1.00;;;;;;5119840;28;19927;-82
2022/02/17 02:34:41;;;;;;;;;;;12.30;1.00;;;;;;5115932;28;19954;-82
2022/02/17 02:37:06;;;;;;;;;;;12.40;1.00;;;;;;5120595;28;19919;-83
2022/02/17 02:39:33;;;;;;;;;;;12.30;1.00;;;;;;5120040;28;19919;-82
2022/02/17 02:41:59;;;;;;;;;;;12.30;1.00;;;;;;5120792;28;19916;-82
2022/02/17 02:44:24;;;;;;;;;;;12.20;1.00;;;;;;5118637;28;19911;-83
2022/02/17 02:46:49;;;;;;;;;;;12.30;1.00;;;;;;5120481;28;19934;-83
2022/02/17 02:49:15;;;;;;;;;;;12.20;1.00;;;;;;5115637;28;19935;-83
2022/02/17 02:51:40;;;;;;;;;;;12.20;1.00;;;;;;5118352;28;19938;-83
2022/02/17 02:54:06;;;;;;;;;;;12.10;1.00;;;;;;5120100;28;19941;-83
2022/02/17 02:56:33;;;;;;;;;;;12.10;1.00;;;;;;5124170;28;19916;-83
2022/02/17 02:58:59;;;;;;;;;;;12.20;1.00;;;;;;5122622;28;19912;-83
2022/02/17 03:01:25;;;;;;;;;;;12.10;1.00;;;;;;5127407;28;19979;-83
2022/02/17 03:03:50;;;;;;;;;;;12.10;1.00;;;;;;5124437;28;20290;-83
2022/02/17 03:06:16;;;;;;;;;;;12.10;1.00;;;;;;5114316;28;19916;-83
2022/02/17 03:08:42;;;;;;;;;;;12.10;1.00;;;;;;5119889;28;19937;-82
2022/02/17 03:11:07;;;;;;;;;;;12.10;1.00;;;;;;5130649;28;19912;-83
2022/02/17 03:13:33;;;;;;;;;;;12.00;1.00;;;;;;5119700;28;20411;-83
2022/02/17 03:15:58;;;;;;;;;;;12.00;1.00;;;;;;5122479;28;20180;-83
2022/02/17 03:18:24;;;;;;;;;;;12.00;1.00;;;;;;5120636;28;19911;-83
2022/02/17 03:20:49;;;;;;;;;;;12.00;1.00;;;;;;5121211;28;19977;-83
2022/02/17 03:23:15;;;;;;;;;;;12.00;1.00;;;;;;5119726;28;19912;-81
2022/02/17 03:25:40;;;;;;;;;;;12.00;1.00;;;;;;5121865;28;19912;-83
2022/02/17 03:28:05;;;;;;;;;;;12.00;1.00;;;;;;5123005;28;19957;-83
2022/02/17 03:30:31;;;;;;;;;;;11.90;1.00;;;;;;5120152;28;20035;-83
2022/02/17 03:32:57;;;;;;;;;;;11.90;1.00;;;;;;5119776;28;19922;-83
2022/02/17 03:35:23;;;;;;;;;;;11.90;1.00;;;;;;5120316;28;20333;-83
2022/02/17 03:37:48;;;;;;;;;;;11.90;1.00;;;;;;5123907;28;19920;-82
2022/02/17 03:40:14;;;;;;;;;;;11.90;1.00;;;;;;5118614;28;19915;-82
2022/02/17 03:42:40;;;;;;;;;;;11.90;1.00;;;;;;5119171;28;20375;-82
2022/02/17 03:45:06;;;;;;;;;;;11.90;1.00;;;;;;5121163;28;19927;-83
2022/02/17 03:47:32;;;;;;;;;;;11.80;1.00;;;;;;5119927;28;19938;-83
2022/02/17 03:49:57;;;;;;;;;;;11.70;1.00;;;;;;5125095;28;19957;-83
2022/02/17 03:52:23;;;;;;;;;;;11.80;1.00;;;;;;5120788;28;19941;-83
2022/02/17 03:54:48;;;;;;;;;;;11.70;1.00;;;;;;5125137;28;19918;-83
2022/02/17 03:57:13;;;;;;;;;;;11.70;1.00;;;;;;5118583;28;19919;-83
2022/02/17 03:59:39;;;;;;;;;;;11.70;1.00;;;;;;5118380;28;19912;-83
2022/02/17 04:02:04;;;;;;;;;;;11.70;1.00;;;;;;5120819;28;19951;-82
2022/02/17 04:04:30;;;;;;;;;;;11.70;1.00;;;;;;5122971;28;19918;-83
2022/02/17 04:06:55;;;;;;;;;;;11.60;1.00;;;;;;5125930;28;19915;-82
2022/02/17 04:09:21;;;;;;;;;;;11.60;1.00;;;;;;5120134;28;19930;-82
2022/02/17 04:11:46;;;;;;;;;;;11.60;1.00;;;;;;5122759;27;19916;-83
2022/02/17 04:14:12;;;;;;;;;;;11.60;1.00;;;;;;5120379;27;19922;-82
2022/02/17 04:16:37;;;;;;;;;;;11.60;1.00;;;;;;5118848;28;20014;-81
2022/02/17 04:19:03;;;;;;;;;;;11.60;1.00;;;;;;5121053;28;19914;-83
2022/02/17 04:21:28;;;;;;;;;;;11.60;1.00;;;;;;5120270;27;19911;-82
2022/02/17 04:23:54;;;;;;;;;;;11.50;1.00;;;;;;5112349;28;19998;-82
2022/02/17 04:26:20;;;;;;;;;;;11.60;1.00;;;;;;5120453;27;19971;-82
2022/02/17 04:28:46;;;;;;;;;;;11.50;1.00;;;;;;5119410;28;19915;-83
2022/02/17 04:31:12;;;;;;;;;;;11.50;1.00;;;;;;5122180;28;19919;-83
2022/02/17 04:33:38;;;;;;;;;;;11.50;1.00;;;;;;5119152;28;19980;-83
2022/02/17 04:36:04;;;;;;;;;;;11.50;1.00;;;;;;5120420;28;19908;-82
2022/02/17 04:38:29;;;;;;;;;;;11.40;1.00;;;;;;5121501;27;19927;-83
2022/02/17 04:43:39;;;;;;;;;;;11.40;1.00;;;;;;5118340;28;19923;-82
2022/02/17 04:46:05;;;;;;;;;;;11.40;1.00;;;;;;5123771;27;19904;-83
2022/02/17 04:48:31;;;;;;;;;;;11.40;1.00;;;;;;5123558;27;19951;-82
2022/02/17 04:50:57;;;;;;;;;;;11.40;1.00;;;;;;5124106;27;19907;-83
2022/02/17 04:53:23;;;;;;;;;;;11.30;1.00;;;;;;5119313;28;19915;-82
2022/02/17 04:55:48;;;;;;;;;;;11.30;1.00;;;;;;5123818;27;19908;-83
2022/02/17 04:58:14;;;;;;;;;;;11.40;1.00;;;;;;5120506;27;20320;-83
2022/02/17 05:00:39;;;;;;;;;;;11.30;1.00;;;;;;5112452;28;20283;-82
2022/02/17 05:03:04;;;;;;;;;;;11.30;1.00;;;;;;5120472;27;19935;-83
2022/02/17 05:05:30;;;;;;;;;;;11.30;1.00;;;;;;5121195;27;19912;-83
2022/02/17 05:07:56;;;;;;;;;;;11.40;1.00;;;;;;5119259;28;19920;-83
2022/02/17 05:10:21;;;;;;;;;;;11.20;1.00;;;;;;5122219;27;19904;-82
2022/02/17 05:12:47;;;;;;;;;;;11.10;1.00;;;;;;5131008;27;19912;-83
2022/02/17 05:15:12;;;;;;;;;;;11.20;1.00;;;;;;5123405;27;19943;-82
2022/02/17 05:17:38;;;;;;;;;;;11.10;1.00;;;;;;5121212;27;21953;-83
2022/02/17 05:20:05;;;;;;;;;;;11.10;1.00;;;;;;5121740;28;19926;-83
2022/02/17 05:22:31;;;;;;;;;;;11.00;1.00;;;;;;5120311;28;20552;-82
2022/02/17 05:24:56;;;;;;;;;;;11.00;1.00;;;;;;5122339;28;19943;-83
2022/02/17 05:27:22;;;;;;;;;;;11.00;1.00;;;;;;5122186;28;19994;-82
2022/02/17 05:29:47;;;;;;;;;;;11.00;1.00;;;;;;5122807;27;19919;-83
2022/02/17 05:32:13;;;;;;;;;;;11.00;1.00;;;;;;5122131;28;19912;-83
2022/02/17 05:34:38;;;;;;;;;;;11.00;1.00;;;;;;5118835;27;19927;-83
2022/02/17 05:37:04;;;;;;;;;;;11.00;1.00;;;;;;5124997;27;19919;-83
2022/02/17 05:39:29;;;;;;;;;;;10.90;1.00;;;;;;5125005;27;19911;-83
2022/02/17 05:41:55;;;;;;;;;;;10.90;1.00;;;;;;5123661;27;19918;-82
2022/02/17 05:44:20;;;;;;;;;;;10.90;1.00;;;;;;5122439;27;20320;-83
2022/02/17 05:46:46;;;;;;;;;;;10.90;1.00;;;;;;5122533;27;19915;-83
2022/02/17 05:49:11;;;;;;;;;;;10.80;1.00;;;;;;5126916;27;19975;-83
2022/02/17 05:51:36;;;;;;;;;;;10.90;1.00;;;;;;5123671;28;19926;-82
2022/02/17 05:54:02;;;;;;;;;;;10.90;1.00;;;;;;5121792;28;20267;-83
2022/02/17 05:56:27;;;;;;;;;;;10.80;1.00;;;;;;5122508;28;19922;-83
2022/02/17 05:58:53;;;;;;;;;;;10.80;1.00;;;;;;5127530;27;20300;-81
2022/02/17 06:01:18;;;;;;;;;;;10.80;1.00;;;;;;5128238;27;19907;-82
2022/02/17 06:03:44;;;;;;;;;;;10.80;1.00;;;;;;5125790;27;19919;-83
2022/02/17 06:06:09;;;;;;;;;;;10.80;1.00;;;;;;5125907;27;19931;-82
2022/02/17 06:08:35;;;;;;;;;;;10.80;1.00;;;;;;5128178;27;19930;-83
2022/02/17 06:11:00;;;;;;;;;;;10.70;1.00;;;;;;5127191;27;19911;-83
2022/02/17 06:13:26;;;;;;;;;;;10.70;1.00;;;;;;5123309;27;19922;-83
2022/02/17 06:15:51;;;;;;;;;;;10.80;1.00;;;;;;5119937;28;19994;-82
2022/02/17 06:18:16;;;;;;;;;;;10.80;1.00;;;;;;5118646;27;19908;-82
2022/02/17 06:20:42;;;;;;;;;;;10.80;1.00;;;;;;5120936;27;19922;-83
2022/02/17 06:23:07;;;;;;;;;;;10.80;1.00;;;;;;5121148;27;19907;-83
2022/02/17 06:25:33;;;;;;;;;;;10.80;1.00;;;;;;5121761;28;20525;-83
2022/02/17 06:27:59;;;;;;;;;;;10.70;1.00;;;;;;5121937;28;19919;-83
2022/02/17 06:30:25;;;;;;;;;;;10.70;1.00;;;;;;5121650;28;19908;-82
2022/02/17 06:32:52;;;;;;;;;;;10.60;1.00;;;;;;5119160;28;19912;-82
2022/02/17 06:35:21;;;;;;;;;;;10.60;1.00;;;;;;5127458;27;19908;-83
2022/02/17 06:37:47;;;;;;;;;;;10.60;1.00;;;;;;5126879;28;19907;-85
2022/02/17 06:40:13;;;;;;;;;;;10.70;1.00;;;;;;5140673;27;19976;-86
2022/02/17 06:42:39;;;;;;;;;;;10.70;1.00;;;;;;5135023;27;19956;-85
2022/02/17 06:45:05;;;;;;;;;;;10.90;1.00;;;;;;5131511;28;19919;-85
2022/02/17 06:47:30;;;;;;;;;;;10.70;1.00;;;;;;5127572;28;19920;-85
2022/02/17 06:49:56;;;;;;;;;;;10.70;1.00;;;;;;5128580;28;20547;-85
2022/02/17 06:52:22;;;;;;;;;;;10.70;1.00;;;;;;5124523;28;19985;-85
2022/02/17 06:54:48;;;;;;;;;;;10.70;1.00;;;;;;5128675;28;19919;-85
2022/02/17 06:57:20;;;;;;;;;;;10.70;1.00;;;;;;5127818;28;19941;-86
2022/02/17 06:59:46;;;;;;;;;;;10.70;1.00;;;;;;5125142;28;19927;-83
2022/02/17 07:02:11;;;;;;;;;;;10.60;1.00;;;;;;5120767;28;19912;-82
2022/02/17 07:04:37;;;;;;;;;;;10.60;1.00;;;;;;5116471;28;19912;-82
2022/02/17 07:07:02;;;;;;;;;;;10.60;1.00;;;;;;5118506;28;19933;-82
2022/02/17 07:09:28;;;;;;;;;;;10.60;1.00;;;;;;5117116;28;19912;-82
2022/02/17 07:11:55;;;;;;;;;;;10.60;1.00;;;;;;5124491;28;19916;-83
2022/02/17 07:14:23;;;;;;;;;;;10.60;1.00;;;;;;5117235;28;19930;-83
2022/02/17 07:16:57;;;;;;;;;;;10.60;1.00;;;;;;5125297;28;19918;-83
2022/02/17 07:19:23;;;;;;;;;;;10.60;1.00;;;;;;5116805;28;19915;-83
2022/02/17 07:21:50;;;;;;;;;;;10.60;1.00;;;;;;5120769;28;19919;-83
2022/02/17 07:24:19;;;;;;;;;;;10.50;1.00;;;;;;5123463;28;19962;-83
2022/02/17 07:26:45;;;;;;;;;;;10.50;1.00;;;;;;5120362;28;19921;-82
2022/02/17 07:29:11;;;;;;;;;;;10.60;1.00;;;;;;5119389;28;19936;-82
2022/02/17 07:31:36;;;;;;;;;;;10.60;1.00;;;;;;5120358;28;19912;-82
2022/02/17 07:34:02;;;;;;;;;;;10.70;1.00;;;;;;5122491;28;19911;-83
2022/02/17 07:36:27;;;;;;;;;;;10.70;1.00;;;;;;5120695;28;19937;-82
2022/02/17 07:38:53;;;;;;;;;;;10.60;1.00;;;;;;5133311;28;19912;-83
2022/02/17 07:41:18;;;;;;;;;;;10.80;1.00;;;;;;5121065;27;19915;-82
2022/02/17 07:43:44;;;;;;;;;;;10.80;1.00;;;;;;5119560;28;19919;-83
2022/02/17 07:46:10;;;;;;;;;;;10.80;1.00;;;;;;5120395;28;19918;-81
2022/02/17 07:48:35;;;;;;;;;;;10.70;1.00;;;;;;5121715;28;20000;-82
2022/02/17 07:51:01;;;;;;;;;;;10.70;1.00;;;;;;5123412;28;19967;-82
2022/02/17 07:53:26;;;;;;;;;;;11.20;1.00;;;;;;5121683;28;19918;-83
2022/02/17 07:55:52;;;;;;;;;;;13.20;1.00;;;;;;5138538;27;19947;-83
2022/02/17 07:58:17;;;;;;;;;;;15.00;1.00;;;;;;5121913;28;20335;-83
2022/02/17 08:00:46;;;;;;;;;;;14.70;1.00;;;;;;5119199;27;19964;-83
2022/02/17 08:03:13;;;;;;;;;;;14.80;1.00;;;;;;5115244;28;20006;-83
2022/02/17 08:05:38;;;;;;;;;;;14.70;1.00;;;;;;5126712;27;19911;-83
2022/02/17 08:08:08;;;;;;;;;;;14.10;1.00;;;;;;5114672;28;19919;-83
2022/02/17 08:10:35;;;;;;;;;;;13.30;1.00;;;;;;5121168;28;19907;-83
2022/02/17 08:13:01;;;;;;;;;;;12.70;1.00;;;;;;5119895;28;19979;-82
2022/02/17 08:15:26;;;;;;;;;;;12.30;1.00;;;;;;5121755;28;19944;-83
2022/02/17 08:17:51;;;;;;;;;;;12.00;1.00;;;;;;5121150;28;19908;-83
2022/02/17 08:20:17;;;;;;;;;;;11.70;1.00;;;;;;5121164;28;20307;-83
2022/02/17 08:22:50;;;;;;;;;;;11.50;1.00;;;;;;5119699;28;19907;-83
2022/02/17 08:25:15;;;;;;;;;;;11.50;1.00;;;;;;5110980;27;19993;-83
2022/02/17 08:27:41;;;;;;;;;;;13.90;1.00;;;;;;5108059;27;19912;-83
2022/02/17 08:30:07;;;;;;;;;;;13.80;1.00;;;;;;5116998;27;19982;-83
2022/02/17 08:32:35;;;;;;;;;;;13.40;1.00;;;;;;5121853;27;20485;-84
2022/02/17 08:35:01;;;;;;;;;;;14.00;1.00;;;;;;5122954;27;19915;-83
2022/02/17 08:37:27;;;;;;;;;;;14.60;1.00;;;;;;5103787;28;19913;-82
2022/02/17 08:39:52;;;;;;;;;;;14.20;1.00;;;;;;5122847;27;19912;-82
2022/02/17 08:42:18;;;;;;;;;;;13.80;1.00;;;;;;5125164;27;19924;-83
2022/02/17 08:44:43;;;;;;;;;;;13.60;1.00;;;;;;5116316;27;19943;-83
2022/02/17 08:47:09;;;;;;;;;;;13.40;1.00;;;;;;5116130;27;19912;-82
2022/02/17 08:49:34;;;;;;;;;;;13.30;1.00;;;;;;5115565;27;20002;-83
2022/02/17 08:51:59;;;;;;;;;;;14.20;1.00;;;;;;5117195;27;20427;-83
2022/02/17 08:54:25;;;;;;;;;;;14.00;1.00;;;;;;5120738;27;19915;-82
2022/02/17 08:56:50;;;;;;;;;;;14.10;1.00;;;;;;5113531;27;19923;-82
2022/02/17 08:59:16;;;;;;;;;;;16.10;1.00;;;;;;5107286;28;19922;-82
2022/02/17 09:01:41;;;;;;;;;;;15.90;1.00;;;;;;5110559;27;19986;-82
2022/02/17 09:04:07;;;;;;;;;;;15.10;1.00;;;;;;5115023;27;19912;-82
2022/02/17 09:06:32;;;;;;;;;;;17.30;1.00;;;;;;5125263;27;19911;-82
2022/02/17 09:08:58;;;;;;;;;;;16.20;1.00;;;;;;5118661;28;19916;-82
2022/02/17 09:11:23;;;;;;;;;;;15.90;1.00;;;;;;5105264;28;19929;-82
2022/02/17 09:13:49;;;;;;;;;;;15.10;99.90;;;;;;5111692;27;19912;-83
2022/02/17 09:16:14;;;;;;;;;;;16.00;1.00;;;;;;5111044;28;19912;-83
2022/02/17 09:18:40;;;;;;;;;;;15.80;99.90;;;;;;5118297;27;19919;-83
2022/02/17 09:21:05;;;;;;;;;;;15.70;99.90;;;;;;5113749;28;19923;-82
2022/02/17 09:23:31;;;;;;;;;;;15.20;99.90;;;;;;5119065;28;20269;-81
2022/02/17 09:25:56;;;;;;;;;;;16.20;99.90;;;;;;5110346;28;19912;-82
2022/02/17 09:28:22;;;;;;;;;;;17.20;99.90;;;;;;5112774;28;19912;-82
2022/02/17 09:30:47;;;;;;;;;;;16.50;99.90;;;;;;5120530;27;20351;-81
2022/02/17 09:33:13;;;;;;;;;;;15.60;99.90;;;;;;5118444;27;19920;-82
2022/02/17 09:35:39;;;;;;;;;;;14.70;99.90;;;;;;5118669;27;20003;-83
2022/02/17 09:38:04;;;;;;;;;;;14.40;99.90;;;;;;5109638;28;20485;-83
2022/02/17 09:40:30;;;;;;;;;;;14.90;99.90;;;;;;5112895;27;19990;-82
2022/02/17 09:42:55;;;;;;;;;;;15.50;99.90;;;;;;5105611;28;19920;-83
2022/02/17 09:45:22;;;;;;;;;;;15.60;99.90;;;;;;5110648;28;19915;-84
2022/02/17 09:47:47;;;;;;;;;;;16.80;99.90;;;;;;5118459;27;19912;-83
2022/02/17 09:50:14;;;;;;;;;;;17.20;99.90;;;;;;5105116;27;19912;-81
2022/02/17 09:52:39;;;;;;;;;;;17.10;99.90;;;;;;5105050;28;19927;-83
2022/02/17 09:55:11;;;;;;;;;;;18.20;99.90;;;;;;5119737;27;20431;-84
2022/02/17 09:57:37;;;;;;;;;;;19.40;99.90;;;;;;5107620;27;19920;-83
2022/02/17 10:00:05;;;;;;;;;;;19.20;99.90;;;;;;5122657;27;19916;-84
2022/02/17 10:02:30;;;;;;;;;;;20.40;99.90;;;;;;5121842;27;20295;-84
2022/02/17 10:04:56;;;;;;;;;;;19.50;99.90;;;;;;5118707;27;19911;-84
2022/02/17 10:07:48;;;;;;;;;;;19.50;99.90;;;;;;5114862;27;19957;-83
2022/02/17 10:10:23;;;;;;;;;;;19.90;99.90;;;;;;5098766;28;20284;-82
2022/02/17 10:13:04;;;;;;;;;;;20.20;99.90;;;;;;5112799;28;19916;-84
2022/02/17 10:15:38;;;;;;;;;;;20.00;99.90;;;;;;5125274;27;20010;-84
2022/02/17 10:18:12;;;;;;;;;;;19.30;99.90;;;;;;5109776;28;19912;-84
2022/02/17 10:20:52;;;;;;;;;;;18.60;99.90;;;;;;5112239;28;19918;-84
2022/02/17 10:23:19;;;;;;;;;;;18.80;99.90;;;;;;5101685;28;19919;-83
2022/02/17 10:26:05;;;;;;;;;;;17.20;99.90;;;;;;5101417;28;19957;-82
2022/02/17 10:28:35;;;;;;;;;;;17.00;99.90;;;;;;5109276;28;19960;-84
2022/02/17 10:31:00;;;;;;;;;;;17.30;99.90;;;;;;5117278;28;19955;-83
2022/02/17 10:33:55;;;;;;;;;;;16.50;99.90;;;;;;5119237;27;19937;-84
2022/02/17 10:36:39;;;;;;;;;;;16.90;99.90;;;;;;5087902;27;19945;-83
2022/02/17 10:39:09;;;;;;;;;;;19.00;99.90;;;;;;5106136;28;19909;-83
2022/02/17 10:41:44;;;;;;;;;;;20.70;99.90;;;;;;5110618;28;19924;-84
2022/02/17 10:44:10;;;;;;;;;;;21.90;99.90;;;;;;5105837;27;19959;-84
2022/02/17 10:46:38;;;;;;;;;;;22.50;99.90;;;;;;5109713;28;19972;-84
2022/02/17 10:49:11;;;;;;;;;;;21.50;99.90;;;;;;5113643;27;19916;-84
2022/02/17 10:51:36;;;;;;;;;;;20.80;99.90;;;;;;5123858;27;19938;-83
2022/02/17 10:54:02;;;;;;;;;;;19.90;99.90;;;;;;5118675;27;20335;-83
2022/02/17 10:56:31;;;;;;;;;;;19.20;99.90;;;;;;5110371;28;19916;-83
2022/02/17 10:59:01;;;;;;;;;;;18.60;99.90;;;;;;5111981;28;19912;-84
2022/02/17 11:01:28;;;;;;;;;;;19.10;99.90;;;;;;5118961;28;19911;-84
2022/02/17 11:03:54;;;;;;;;;;;19.20;99.90;;;;;;5114657;28;19960;-84
2022/02/17 11:06:21;;;;;;;;;;;19.90;99.90;;;;;;5122764;28;19916;-82
2022/02/17 11:08:47;;;;;;;;;;;21.30;99.90;;;;;;5113975;28;20551;-83
2022/02/17 11:11:16;;;;;;;;;;;22.20;99.90;;;;;;5121250;28;19949;-83
2022/02/17 11:13:48;;;;;;;;;;;22.20;99.90;;;;;;5126007;27;19923;-82
2022/02/17 11:16:17;;;;;;;;;;;20.00;99.90;;;;;;5118493;28;20312;-83
2022/02/17 11:18:43;;;;;;;;;;;18.80;99.90;;;;;;5109439;27;19957;-82
2022/02/17 11:21:14;;;;;;;;;;;17.70;99.90;;;;;;5124529;27;19912;-82
2022/02/17 11:23:40;;;;;;;;;;;17.50;99.90;;;;;;5106910;28;19912;-83
2022/02/17 11:26:18;;;;;;;;;;;16.60;99.90;;;;;;5112948;28;19924;-82
2022/02/17 11:28:43;;;;;;;;;;;16.20;99.90;;;;;;5123414;27;19919;-83
2022/02/17 11:31:10;;;;;;;;;;;15.30;99.90;;;;;;5123744;27;20375;-83
2022/02/17 11:33:38;;;;;;;;;;;14.80;99.90;;;;;;5112962;27;20375;-83
2022/02/17 11:36:25;;;;;;;;;;;15.90;99.90;;;;;;5127805;27;19912;-83
2022/02/17 11:38:51;;;;;;;;;;;17.20;99.90;;;;;;5111767;27;19912;-83
2022/02/17 11:41:20;;;;;;;;;;;18.70;99.90;;;;;;5124055;27;19937;-84
2022/02/17 11:43:47;;;;;;;;;;;19.40;99.90;;;;;;5121128;27;19912;-84
2022/02/17 11:46:16;;;;;;;;;;;19.90;99.90;;;;;;5127229;27;19954;-84
2022/02/17 11:48:46;;;;;;;;;;;19.90;99.90;;;;;;5127421;27;19912;-83
2022/02/17 11:51:14;;;;;;;;;;;20.00;99.90;;;;;;5109236;28;19912;-83
2022/02/17 11:53:41;;;;;;;;;;;20.60;99.90;;;;;;5115375;27;19991;-83
2022/02/17 11:56:07;;;;;;;;;;;20.90;99.90;;;;;;5118106;28;19912;-84
2022/02/17 11:58:43;;;;;;;;;;;19.90;99.90;;;;;;5126707;27;19912;-83
2022/02/17 12:01:21;;;;;;;;;;;19.00;99.90;;;;;;5115760;27;19937;-83
2022/02/17 12:04:09;;;;;;;;;;;18.70;99.90;;;;;;5128514;27;19912;-83
2022/02/17 12:06:38;;;;;;;;;;;17.80;99.90;;;;;;5124064;27;19939;-83
2022/02/17 12:09:04;;;;;;;;;;;16.70;99.90;;;;;;5109496;27;19922;-83
2022/02/17 12:11:36;;;;;;;;;;;15.90;99.90;;;;;;5111939;28;20224;-83
2022/02/17 12:14:04;;;;;;;;;;;15.50;99.90;;;;;;5114705;28;19965;-83
2022/02/17 12:16:37;;;;;;;;;;;14.90;99.90;;;;;;5121675;28;20002;-83
2022/02/17 12:19:10;;;;;;;;;;;15.70;99.90;;;;;;5120301;28;19991;-83
2022/02/17 12:21:37;;;;;;;;;;;15.50;99.90;;;;;;5115678;28;19916;-84
2022/02/17 12:24:03;;;;;;;;;;;15.50;99.90;;;;;;5116283;28;19991;-84
2022/02/17 12:26:40;;;;;;;;;;;15.50;99.90;;;;;;5119468;28;19915;-84
2022/02/17 12:29:19;;;;;;;;;;;15.70;99.90;;;;;;5108931;28;19912;-83
2022/02/17 12:31:45;;;;;;;;;;;16.60;99.90;;;;;;5114464;27;20568;-83
2022/02/17 12:34:11;;;;;;;;;;;16.70;99.90;;;;;;5120022;27;19950;-83
2022/02/17 12:36:36;;;;;;;;;;;16.60;99.90;;;;;;5123183;27;19937;-83
2022/02/17 12:39:03;;;;;;;;;;;17.30;99.90;;;;;;5123756;27;19919;-83
2022/02/17 12:41:28;;;;;;;;;;;18.00;99.90;;;;;;5114618;27;19916;-83
2022/02/17 12:43:54;;;;;;;;;;;18.70;99.90;;;;;;5119984;27;20010;-83
2022/02/17 12:46:20;;;;;;;;;;;19.30;99.90;;;;;;5116889;27;19960;-84
2022/02/17 12:48:46;;;;;;;;;;;19.60;99.90;;;;;;5116301;27;19919;-84
2022/02/17 12:51:28;;;;;;;;;;;20.30;99.90;;;;;;5121676;27;19913;-83
2022/02/17 12:53:56;;;;;;;;;;;20.50;99.90;;;;;;5105922;28;19915;-84
2022/02/17 12:56:26;;;;;;;;;;;20.40;99.90;;;;;;5119580;28;20093;-84
2022/02/17 12:58:52;;;;;;;;;;;20.60;99.90;;;;;;5108826;28;19909;-83
2022/02/17 13:01:22;;;;;;;;;;;21.00;99.90;;;;;;5100564;28;20291;-84
2022/02/17 13:03:48;;;;;;;;;;;20.50;99.90;;;;;;5110288;27;19955;-82
2022/02/17 13:06:22;;;;;;;;;;;20.40;99.90;;;;;;5114526;27;19907;-82
2022/02/17 13:08:49;;;;;;;;;;;19.70;99.90;;;;;;5110011;27;19973;-82
2022/02/17 13:11:16;;;;;;;;;;;19.30;99.90;;;;;;5112210;28;19912;-84
2022/02/17 13:13:43;;;;;;;;;;;18.30;99.90;;;;;;5110896;28;20288;-84
2022/02/17 13:16:09;;;;;;;;;;;17.10;99.90;;;;;;5113775;27;19912;-84
2022/02/17 13:18:35;;;;;;;;;;;16.10;99.90;;;;;;5117607;28;19919;-84
2022/02/17 13:21:20;;;;;;;;;;;15.40;99.90;;;;;;5123790;27;19908;-83
2022/02/17 13:23:49;;;;;;;;;;;14.70;99.90;;;;;;5114341;28;19930;-84
2022/02/17 13:26:27;;;;;;;;;;;14.30;99.90;;;;;;5122524;28;20360;-84
2022/02/17 13:28:53;;;;;;;;;;;14.10;99.90;;;;;;5119290;28;19950;-84
2022/02/17 13:31:20;;;;;;;;;;;14.10;99.90;;;;;;5119372;28;20006;-83
2022/02/17 13:33:46;;;;;;;;;;;14.90;99.90;;;;;;5120324;28;19950;-85
2022/02/17 13:36:21;;;;;;;;;;;16.10;99.90;;;;;;5122327;28;19916;-85
2022/02/17 13:38:47;;;;;;;;;;;17.20;99.90;;;;;;5120650;27;19908;-82
2022/02/17 13:41:13;;;;;;;;;;;17.90;99.90;;;;;;5127523;27;19922;-84
2022/02/17 13:43:45;;;;;;;;;;;18.00;99.90;;;;;;5110851;27;19997;-84
2022/02/17 13:46:10;;;;;;;;;;;17.50;99.90;;;;;;5122856;27;19915;-83
2022/02/17 13:48:37;;;;;;;;;;;16.80;99.90;;;;;;5119769;28;19937;-84
2022/02/17 13:51:04;;;;;;;;;;;16.20;99.90;;;;;;5117815;28;19915;-83
2022/02/17 13:53:33;;;;;;;;;;;15.90;99.90;;;;;;5096314;28;20399;-83
2022/02/17 13:56:01;;;;;;;;;;;15.60;99.90;;;;;;5112609;28;19908;-83
2022/02/17 13:58:27;;;;;;;;;;;15.00;99.90;;;;;;5096973;28;19952;-84
2022/02/17 14:00:53;;;;;;;;;;;15.30;99.90;;;;;;5102299;28;19920;-83
2022/02/17 14:03:21;;;;;;;;;;;15.70;99.90;;;;;;5124760;27;19908;-84
2022/02/17 14:05:46;;;;;;;;;;;16.10;99.90;;;;;;5116549;28;19915;-84
2022/02/17 14:08:13;;;;;;;;;;;16.80;99.90;;;;;;5103261;28;20367;-84
2022/02/17 14:10:38;;;;;;;;;;;17.00;99.90;;;;;;5116722;28;19908;-84
2022/02/17 14:13:05;;;;;;;;;;;17.10;99.90;;;;;;5116259;28;19933;-84
2022/02/17 14:15:31;;;;;;;;;;;16.60;99.90;;;;;;5118869;28;19915;-84
2022/02/17 14:17:56;;;;;;;;;;;16.60;99.90;;;;;;5116345;28;20303;-84
2022/02/17 14:20:22;;;;;;;;;;;15.60;99.90;;;;;;5111078;28;19981;-83
2022/02/17 14:22:47;;;;;;;;;;;15.90;99.90;;;;;;5116370;28;19911;-83
2022/02/17 14:25:13;;;;;;;;;;;15.50;99.90;;;;;;5113353;28;19908;-83